Time;durP1;ratioP1;P1;durP2;ratioP2;P2;SDS_P1;SDS_P2;PMS_P1;PMS_P2;Temp;Humidity;BMP_temperature;BMP_pressure;BME280_temperature;BME280_humidity;BME280_pressure;Samples;Min_cycle;Max_cycle;Signal;HPM_P1;HPM_P2
2021/12/22 00:00:18;;;;;;;;;;;-0.20;99.90;;;;;;5027705;28;19909;-68
2021/12/22 00:02:48;;;;;;;;;;;-0.20;99.90;;;;;;5029496;28;19920;-67
2021/12/22 00:05:18;;;;;;;;;;;-0.20;99.90;;;;;;5046885;28;19940;-68
2021/12/22 00:07:44;;;;;;;;;;;-0.10;99.90;;;;;;5030006;28;19946;-67
2021/12/22 00:10:10;;;;;;;;;;;-0.10;99.90;;;;;;5036662;28;20128;-67
2021/12/22 00:12:35;;;;;;;;;;;-0.10;99.90;;;;;;5038009;28;19908;-67
2021/12/22 00:15:01;;;;;;;;;;;-0.20;99.90;;;;;;5039080;28;20375;-67
2021/12/22 00:17:26;;;;;;;;;;;-0.30;99.90;;;;;;5038248;28;19913;-67
2021/12/22 00:19:52;;;;;;;;;;;-0.30;99.90;;;;;;5039047;28;19917;-67
2021/12/22 00:22:17;;;;;;;;;;;-0.30;99.90;;;;;;5033312;28;20328;-67
2021/12/22 00:24:43;;;;;;;;;;;-0.30;99.90;;;;;;5028085;28;20262;-67
2021/12/22 00:27:08;;;;;;;;;;;-0.30;99.90;;;;;;5027672;28;19967;-67
2021/12/22 00:29:34;;;;;;;;;;;-0.30;99.90;;;;;;5027952;28;19908;-68
2021/12/22 00:32:14;;;;;;;;;;;-0.30;99.90;;;;;;5027707;28;19913;-68
2021/12/22 00:34:49;;;;;;;;;;;-0.30;99.90;;;;;;5027907;28;20054;-67
2021/12/22 00:37:16;;;;;;;;;;;-0.20;99.90;;;;;;5032116;28;19914;-67
2021/12/22 00:39:43;;;;;;;;;;;-0.20;99.90;;;;;;5031188;28;20302;-68
2021/12/22 00:42:09;;;;;;;;;;;-0.20;99.90;;;;;;5032074;28;19909;-67
2021/12/22 00:44:35;;;;;;;;;;;-0.30;99.90;;;;;;5031906;28;19940;-68
2021/12/22 00:47:00;;;;;;;;;;;-0.30;99.90;;;;;;5032156;28;19920;-69
2021/12/22 00:49:26;;;;;;;;;;;-0.30;99.90;;;;;;5031866;28;19992;-69
2021/12/22 00:51:51;;;;;;;;;;;-0.40;99.90;;;;;;5032037;28;19913;-68
2021/12/22 00:54:17;;;;;;;;;;;-0.40;99.90;;;;;;5033035;28;19913;-68
2021/12/22 00:56:42;;;;;;;;;;;-0.40;99.90;;;;;;5033144;28;19917;-68
2021/12/22 00:59:07;;;;;;;;;;;-0.50;99.90;;;;;;5032258;28;20377;-68
2021/12/22 01:01:33;;;;;;;;;;;-0.70;99.90;;;;;;5032259;28;19914;-67
2021/12/22 01:03:59;;;;;;;;;;;-0.70;99.90;;;;;;5032619;28;19952;-68
2021/12/22 01:06:24;;;;;;;;;;;-0.60;99.90;;;;;;5031141;28;19913;-67
2021/12/22 01:08:50;;;;;;;;;;;-0.60;99.90;;;;;;5031681;28;19917;-68
2021/12/22 01:11:15;;;;;;;;;;;-0.60;99.90;;;;;;5031596;28;19909;-67
2021/12/22 01:13:41;;;;;;;;;;;-0.60;99.90;;;;;;5031800;28;19916;-68
2021/12/22 01:16:06;;;;;;;;;;;-0.60;99.90;;;;;;5032087;28;20128;-68
2021/12/22 01:18:34;;;;;;;;;;;-0.60;99.90;;;;;;5031654;28;19917;-67
2021/12/22 01:21:23;;;;;;;;;;;-0.60;99.90;;;;;;5031662;28;19916;-67
2021/12/22 01:24:00;;;;;;;;;;;-0.60;99.90;;;;;;5032574;28;20360;-67
2021/12/22 01:26:31;;;;;;;;;;;-0.60;99.90;;;;;;5031769;28;20396;-68
2021/12/22 01:28:56;;;;;;;;;;;-0.60;99.90;;;;;;5031345;28;19916;-68
2021/12/22 01:31:22;;;;;;;;;;;-0.70;99.90;;;;;;5031761;28;20077;-69
2021/12/22 01:33:47;;;;;;;;;;;-0.70;99.90;;;;;;5020351;28;19998;-68
2021/12/22 01:36:13;;;;;;;;;;;-0.70;99.90;;;;;;5018780;28;19917;-68
2021/12/22 01:38:38;;;;;;;;;;;-0.80;99.90;;;;;;5019617;28;20343;-68
2021/12/22 01:41:04;;;;;;;;;;;-0.70;99.90;;;;;;5011278;28;20357;-68
2021/12/22 01:43:29;;;;;;;;;;;-0.70;99.90;;;;;;5017318;28;19914;-67
2021/12/22 01:51:38;;;;;;;;;;;-0.90;99.90;;;;;;5032464;28;20016;-68
2021/12/22 01:54:27;;;;;;;;;;;-0.90;99.90;;;;;;5031548;28;20014;-67
2021/12/22 01:56:53;;;;;;;;;;;-0.90;99.90;;;;;;5022436;28;20367;-68
2021/12/22 01:59:22;;;;;;;;;;;-0.90;99.90;;;;;;5031092;28;19962;-67
2021/12/22 02:01:48;;;;;;;;;;;-0.80;99.90;;;;;;5021449;28;19920;-67
2021/12/22 02:04:14;;;;;;;;;;;-0.80;99.90;;;;;;5015134;28;19913;-67
2021/12/22 02:06:40;;;;;;;;;;;-0.90;99.90;;;;;;5030751;28;19960;-68
2021/12/22 02:09:06;;;;;;;;;;;-0.80;99.90;;;;;;5016639;28;19918;-68
2021/12/22 02:11:31;;;;;;;;;;;-0.90;99.90;;;;;;5015101;28;19917;-68
2021/12/22 02:14:01;;;;;;;;;;;-0.90;99.90;;;;;;5031500;28;19932;-68
2021/12/22 02:16:30;;;;;;;;;;;-0.90;99.90;;;;;;5028702;28;19940;-68
2021/12/22 02:18:56;;;;;;;;;;;-0.90;99.90;;;;;;5029803;28;19916;-67
2021/12/22 02:21:23;;;;;;;;;;;-0.90;99.90;;;;;;5020369;28;19937;-67
2021/12/22 02:23:49;;;;;;;;;;;-0.90;99.90;;;;;;5033976;28;19910;-68
2021/12/22 02:26:20;;;;;;;;;;;-0.90;99.90;;;;;;5031999;28;20301;-68
2021/12/22 02:28:49;;;;;;;;;;;-0.90;99.90;;;;;;5031719;28;19913;-68
2021/12/22 02:31:18;;;;;;;;;;;-0.90;99.90;;;;;;5031675;28;19916;-67
2021/12/22 02:33:47;;;;;;;;;;;-0.90;99.90;;;;;;5010335;28;19979;-68
2021/12/22 02:36:23;;;;;;;;;;;-0.80;99.90;;;;;;5014881;28;19985;-68
2021/12/22 02:38:54;;;;;;;;;;;-0.70;99.90;;;;;;5030364;28;19979;-68
2021/12/22 02:41:21;;;;;;;;;;;-0.70;99.90;;;;;;5029742;28;19948;-69
2021/12/22 02:43:53;;;;;;;;;;;-0.80;99.90;;;;;;5030209;28;19932;-68
2021/12/22 02:46:20;;;;;;;;;;;-0.80;99.90;;;;;;5029726;28;20004;-70
2021/12/22 02:48:46;;;;;;;;;;;-0.80;99.90;;;;;;5029766;28;20314;-68
2021/12/22 02:51:12;;;;;;;;;;;-0.80;99.90;;;;;;5030646;28;20009;-68
2021/12/22 03:04:09;;;;;;;;;;;-0.90;99.90;;;;;;5009855;28;19916;-68
2021/12/22 03:06:50;;;;;;;;;;;-0.90;99.90;;;;;;5015255;28;19924;-68
2021/12/22 03:09:21;;;;;;;;;;;-1.00;99.90;;;;;;5029172;28;19917;-68
2021/12/22 03:11:47;;;;;;;;;;;-1.00;99.90;;;;;;5029908;28;19910;-67
2021/12/22 03:14:13;;;;;;;;;;;-1.10;99.90;;;;;;5029294;28;19924;-69
2021/12/22 03:16:42;;;;;;;;;;;-1.10;99.90;;;;;;5020654;28;19943;-68
2021/12/22 03:19:18;;;;;;;;;;;-1.00;99.90;;;;;;5029198;28;20595;-68
2021/12/22 03:21:44;;;;;;;;;;;-1.10;99.90;;;;;;5030810;28;19981;-68
2021/12/22 03:24:11;;;;;;;;;;;-1.10;99.90;;;;;;5031720;28;20424;-68
2021/12/22 03:26:41;;;;;;;;;;;-1.10;99.90;;;;;;5030235;28;20016;-68
2021/12/22 03:29:08;;;;;;;;;;;-1.10;99.90;;;;;;5032205;28;19920;-68
2021/12/22 03:31:33;;;;;;;;;;;-1.20;99.90;;;;;;5039018;28;19913;-68
2021/12/22 03:33:59;;;;;;;;;;;-1.20;99.90;;;;;;5032751;28;20544;-67
2021/12/22 03:36:24;;;;;;;;;;;-1.20;99.90;;;;;;5029938;28;20236;-67
2021/12/22 03:38:50;;;;;;;;;;;-1.10;99.90;;;;;;5029389;28;20324;-68
2021/12/22 03:41:15;;;;;;;;;;;-1.10;99.90;;;;;;5029408;28;19909;-68
2021/12/22 03:43:41;;;;;;;;;;;-1.00;99.90;;;;;;5029849;28;20249;-68
2021/12/22 03:46:06;;;;;;;;;;;-1.00;99.90;;;;;;5029527;28;19913;-68
2021/12/22 03:48:32;;;;;;;;;;;-1.10;99.90;;;;;;5029460;28;20374;-68
2021/12/22 03:50:58;;;;;;;;;;;-1.10;99.90;;;;;;5028830;28;19970;-68
2021/12/22 03:53:23;;;;;;;;;;;-1.10;99.90;;;;;;5029233;28;19913;-69
2021/12/22 03:55:49;;;;;;;;;;;-1.10;99.90;;;;;;5029490;28;19916;-68
2021/12/22 03:58:15;;;;;;;;;;;-1.00;99.90;;;;;;5028512;28;19915;-68
2021/12/22 04:00:41;;;;;;;;;;;-1.10;99.90;;;;;;5029285;28;20427;-68
2021/12/22 04:03:14;;;;;;;;;;;-1.10;99.90;;;;;;5028604;28;19909;-68
2021/12/22 04:05:40;;;;;;;;;;;-1.20;99.90;;;;;;5027511;28;20217;-70
2021/12/22 04:08:05;;;;;;;;;;;-1.10;99.90;;;;;;5010320;28;20357;-69
2021/12/22 04:10:31;;;;;;;;;;;-1.10;99.90;;;;;;5006578;28;20313;-68
2021/12/22 04:12:57;;;;;;;;;;;-1.10;99.90;;;;;;5027916;28;19917;-69
2021/12/22 04:15:25;;;;;;;;;;;-1.20;99.90;;;;;;5043158;28;19918;-70
2021/12/22 04:17:51;;;;;;;;;;;-1.20;99.90;;;;;;5018336;28;19935;-67
2021/12/22 04:20:17;;;;;;;;;;;-1.20;99.90;;;;;;5023369;28;20448;-69
2021/12/22 04:22:43;;;;;;;;;;;-1.20;99.90;;;;;;5028250;28;20009;-68
2021/12/22 04:25:09;;;;;;;;;;;-1.10;99.90;;;;;;5028272;28;20000;-68
2021/12/22 04:27:35;;;;;;;;;;;-1.20;99.90;;;;;;5026621;28;19928;-68
2021/12/22 04:30:02;;;;;;;;;;;-1.10;99.90;;;;;;5028077;28;20350;-69
2021/12/22 04:32:28;;;;;;;;;;;-1.10;99.90;;;;;;5026410;28;20323;-69
2021/12/22 04:34:53;;;;;;;;;;;-1.10;99.90;;;;;;5019602;28;19921;-68
2021/12/22 04:37:18;;;;;;;;;;;-1.10;99.90;;;;;;5015287;28;20327;-67
2021/12/22 04:39:44;;;;;;;;;;;-1.10;99.90;;;;;;5013070;28;19910;-69
2021/12/22 04:42:09;;;;;;;;;;;-1.10;99.90;;;;;;5016110;28;19918;-67
2021/12/22 04:44:35;;;;;;;;;;;-1.20;99.90;;;;;;5018498;28;19967;-67
2021/12/22 04:47:00;;;;;;;;;;;-1.30;99.90;;;;;;5014916;28;19913;-67
2021/12/22 04:49:26;;;;;;;;;;;-1.40;99.90;;;;;;5016013;28;19960;-69
2021/12/22 04:51:54;;;;;;;;;;;-1.30;99.90;;;;;;5021491;28;20070;-69
2021/12/22 04:55:05;;;;;;;;;;;-1.30;99.90;;;;;;5020806;28;19910;-68
2021/12/22 04:57:05;;;;;;;;;;;-1.40;99.90;;;;;;5006786;28;19920;-67
2021/12/22 04:59:30;;;;;;;;;;;-1.40;99.90;;;;;;5023567;28;19921;-68
2021/12/22 05:01:57;;;;;;;;;;;-1.50;99.90;;;;;;5021955;28;19913;-68
2021/12/22 05:04:22;;;;;;;;;;;-1.40;99.90;;;;;;5019293;28;20036;-68
2021/12/22 05:06:48;;;;;;;;;;;-1.40;99.90;;;;;;5023530;28;19925;-68
2021/12/22 05:09:13;;;;;;;;;;;-1.40;99.90;;;;;;5036570;23;19928;-60
2021/12/22 05:11:40;;;;;;;;;;;-1.40;99.90;;;;;;5066791;28;19923;-61
2021/12/22 05:14:08;;;;;;;;;;;-1.40;99.90;;;;;;5065828;28;20271;-61
2021/12/22 05:16:33;;;;;;;;;;;-1.40;99.90;;;;;;5061720;28;19917;-61
2021/12/22 05:19:14;;;;;;;;;;;-1.40;99.90;;;;;;5057369;28;19923;-61
2021/12/22 05:21:40;;;;;;;;;;;-1.40;99.90;;;;;;5083139;28;19939;-61
2021/12/22 05:24:06;;;;;;;;;;;-1.50;99.90;;;;;;5090740;28;19961;-61
2021/12/22 05:26:31;;;;;;;;;;;-1.50;99.90;;;;;;5089407;28;20287;-60
2021/12/22 05:28:57;;;;;;;;;;;-1.60;99.90;;;;;;5086777;28;19919;-61
2021/12/22 05:31:22;;;;;;;;;;;-1.50;99.90;;;;;;5081120;28;19928;-62
2021/12/22 05:33:48;;;;;;;;;;;-1.50;99.90;;;;;;5090972;28;19923;-61
2021/12/22 05:36:13;;;;;;;;;;;-1.60;99.90;;;;;;5087008;28;19913;-60
2021/12/22 05:38:39;;;;;;;;;;;-1.60;99.90;;;;;;5085016;28;19912;-62
2021/12/22 05:41:05;;;;;;;;;;;-1.50;99.90;;;;;;5090536;28;19912;-61
2021/12/22 05:43:30;;;;;;;;;;;-1.50;99.90;;;;;;5090539;28;20402;-61
2021/12/22 05:45:56;;;;;;;;;;;-1.50;99.90;;;;;;5090954;28;20252;-61
2021/12/22 05:48:22;;;;;;;;;;;-1.40;99.90;;;;;;5089153;28;19957;-61
2021/12/22 05:50:51;;;;;;;;;;;-1.40;99.90;;;;;;5070889;28;20179;-62
2021/12/22 05:53:16;;;;;;;;;;;-1.30;99.90;;;;;;5087226;28;19919;-61
2021/12/22 05:55:42;;;;;;;;;;;-1.40;99.90;;;;;;5100796;28;20215;-60
2021/12/22 05:58:07;;;;;;;;;;;-1.40;99.90;;;;;;5091384;28;20007;-63
2021/12/22 06:00:33;;;;;;;;;;;-1.30;99.90;;;;;;5100049;28;20276;-61
2021/12/22 06:02:58;;;;;;;;;;;-1.30;99.90;;;;;;5075621;28;20137;-61
2021/12/22 06:05:24;;;;;;;;;;;-1.40;99.90;;;;;;5076011;28;19920;-61
2021/12/22 06:07:49;;;;;;;;;;;-1.40;99.90;;;;;;5068327;28;20009;-60
2021/12/22 06:10:15;;;;;;;;;;;-1.40;99.90;;;;;;5073473;28;20307;-60
2021/12/22 06:12:40;;;;;;;;;;;-1.20;99.90;;;;;;5074216;28;19951;-61
2021/12/22 06:15:06;;;;;;;;;;;-1.20;99.90;;;;;;5076988;28;20237;-62
2021/12/22 06:17:31;;;;;;;;;;;-1.20;99.90;;;;;;5068789;28;20329;-61
2021/12/22 06:19:57;;;;;;;;;;;-1.20;99.90;;;;;;5075511;28;20505;-61
2021/12/22 06:22:23;;;;;;;;;;;-1.20;99.90;;;;;;5072818;28;19919;-61
2021/12/22 06:24:49;;;;;;;;;;;-1.20;99.90;;;;;;5084527;28;19920;-60
2021/12/22 06:27:14;;;;;;;;;;;-1.30;99.90;;;;;;5081687;28;20329;-60
2021/12/22 06:29:40;;;;;;;;;;;-1.30;99.90;;;;;;5081652;28;19908;-61
2021/12/22 06:32:06;;;;;;;;;;;-1.30;99.90;;;;;;5081124;28;19908;-62
2021/12/22 06:34:31;;;;;;;;;;;-1.30;99.90;;;;;;5068598;28;19908;-62
2021/12/22 06:36:57;;;;;;;;;;;-1.30;99.90;;;;;;5073089;28;19908;-61
2021/12/22 06:39:22;;;;;;;;;;;-1.30;99.90;;;;;;5068027;28;19912;-62
2021/12/22 06:41:48;;;;;;;;;;;-1.30;99.90;;;;;;5076271;28;19913;-62
2021/12/22 06:44:15;;;;;;;;;;;-1.30;99.90;;;;;;5068484;28;19913;-61
2021/12/22 06:46:41;;;;;;;;;;;-1.30;99.90;;;;;;5073360;28;19916;-62
2021/12/22 06:49:07;;;;;;;;;;;-1.30;99.90;;;;;;5075101;28;19912;-61
2021/12/22 06:51:33;;;;;;;;;;;-1.30;99.90;;;;;;5088834;28;19927;-60
2021/12/22 06:53:58;;;;;;;;;;;-1.30;99.90;;;;;;5088938;28;20018;-61
2021/12/22 06:56:23;;;;;;;;;;;-1.30;99.90;;;;;;5081747;28;19908;-61
2021/12/22 06:58:49;;;;;;;;;;;-1.30;99.90;;;;;;5076818;28;19918;-61
2021/12/22 07:01:18;;;;;;;;;;;-1.30;99.90;;;;;;5075507;28;19916;-61
2021/12/22 07:03:44;;;;;;;;;;;-1.30;99.90;;;;;;5076585;28;20441;-61
2021/12/22 07:06:10;;;;;;;;;;;-1.40;99.90;;;;;;5073616;28;19919;-60
2021/12/22 07:08:35;;;;;;;;;;;-1.40;99.90;;;;;;5076136;28;20427;-62
2021/12/22 07:11:01;;;;;;;;;;;-1.40;99.90;;;;;;5071488;28;19923;-60
2021/12/22 07:13:26;;;;;;;;;;;-1.30;99.90;;;;;;5073775;28;19917;-61
2021/12/22 07:15:52;;;;;;;;;;;-1.40;99.90;;;;;;5080299;28;20186;-61
2021/12/22 07:18:17;;;;;;;;;;;-1.40;99.90;;;;;;5095607;28;20011;-62
2021/12/22 07:20:43;;;;;;;;;;;-1.30;99.90;;;;;;5087012;28;19916;-61
2021/12/22 07:23:09;;;;;;;;;;;-1.30;99.90;;;;;;5082537;28;19930;-61
2021/12/22 07:25:34;;;;;;;;;;;-1.30;99.90;;;;;;5098299;28;20385;-61
2021/12/22 07:28:00;;;;;;;;;;;-1.40;99.90;;;;;;5091544;28;19912;-61
2021/12/22 07:30:26;;;;;;;;;;;-1.40;99.90;;;;;;5088232;28;19965;-60
2021/12/22 07:32:51;;;;;;;;;;;-1.40;99.90;;;;;;5075973;28;19912;-61
2021/12/22 07:35:30;;;;;;;;;;;-1.40;99.90;;;;;;5068234;28;19908;-61
2021/12/22 07:38:20;;;;;;;;;;;-1.40;99.90;;;;;;5068113;28;19909;-61
2021/12/22 07:40:45;;;;;;;;;;;-1.40;99.90;;;;;;5070142;28;19912;-61
2021/12/22 07:43:11;;;;;;;;;;;-1.50;99.90;;;;;;5068682;28;19989;-61
2021/12/22 07:45:36;;;;;;;;;;;-1.50;99.90;;;;;;5068254;28;19908;-60
2021/12/22 07:48:02;;;;;;;;;;;-1.60;99.90;;;;;;5068886;28;19912;-61
2021/12/22 07:50:27;;;;;;;;;;;-1.60;99.90;;;;;;5085716;28;19918;-61
2021/12/22 07:52:53;;;;;;;;;;;-1.60;99.90;;;;;;5087735;28;19908;-61
2021/12/22 07:55:18;;;;;;;;;;;-1.50;99.90;;;;;;5087886;28;20010;-60
2021/12/22 07:57:43;;;;;;;;;;;-1.60;99.90;;;;;;5088447;28;19912;-60
2021/12/22 08:00:09;;;;;;;;;;;-1.50;99.90;;;;;;5087817;28;19915;-60
2021/12/22 08:02:37;;;;;;;;;;;-1.50;99.90;;;;;;5087769;28;19908;-60
2021/12/22 08:05:03;;;;;;;;;;;-1.40;99.90;;;;;;5088340;28;19908;-61
2021/12/22 08:07:28;;;;;;;;;;;-1.30;99.90;;;;;;5087264;28;19923;-61
2021/12/22 08:09:53;;;;;;;;;;;-1.30;99.90;;;;;;5087740;28;19920;-60
2021/12/22 08:12:19;;;;;;;;;;;-1.30;99.90;;;;;;5088249;28;19931;-61
2021/12/22 08:14:44;;;;;;;;;;;-1.30;99.90;;;;;;5087837;28;19916;-61
2021/12/22 08:17:10;;;;;;;;;;;-1.30;99.90;;;;;;5087721;28;19919;-62
2021/12/22 08:19:36;;;;;;;;;;;-1.30;99.90;;;;;;5089254;28;20422;-61
2021/12/22 08:22:02;;;;;;;;;;;-1.20;99.90;;;;;;5088548;28;19908;-61
2021/12/22 08:24:28;;;;;;;;;;;-1.20;99.90;;;;;;5088267;28;19923;-61
2021/12/22 08:26:53;;;;;;;;;;;-1.20;99.90;;;;;;5087279;28;20373;-61
2021/12/22 08:29:19;;;;;;;;;;;-1.20;99.90;;;;;;5089456;28;19947;-60
2021/12/22 08:31:44;;;;;;;;;;;-1.10;99.90;;;;;;5089849;28;20400;-61
2021/12/22 08:34:13;;;;;;;;;;;-1.20;99.90;;;;;;5090176;28;20008;-61
2021/12/22 08:39:22;;;;;;;;;;;-1.10;99.90;;;;;;5070951;28;19982;-61
2021/12/22 08:41:48;;;;;;;;;;;-1.10;99.90;;;;;;5069475;28;19948;-60
2021/12/22 08:44:16;;;;;;;;;;;-1.10;99.90;;;;;;5067479;28;19908;-61
2021/12/22 08:46:42;;;;;;;;;;;-1.10;99.90;;;;;;5068705;28;20377;-62
2021/12/22 08:49:08;;;;;;;;;;;-1.00;99.90;;;;;;5068630;28;19908;-61
2021/12/22 08:51:34;;;;;;;;;;;-1.00;99.90;;;;;;5087430;28;20004;-61
2021/12/22 08:54:00;;;;;;;;;;;-0.90;99.90;;;;;;5089309;28;20358;-61
2021/12/22 08:56:26;;;;;;;;;;;-1.00;99.90;;;;;;5092344;28;19943;-61
2021/12/22 08:58:54;;;;;;;;;;;-1.00;99.90;;;;;;5092749;28;19961;-61
2021/12/22 09:01:20;;;;;;;;;;;-0.90;99.90;;;;;;5092192;28;19919;-61
2021/12/22 09:03:45;;;;;;;;;;;-0.80;99.90;;;;;;5091754;28;19908;-60
2021/12/22 09:06:11;;;;;;;;;;;-0.80;99.90;;;;;;5092004;28;19962;-61
2021/12/22 09:08:36;;;;;;;;;;;-0.70;99.90;;;;;;5091144;28;19912;-60
2021/12/22 09:11:02;;;;;;;;;;;-0.70;99.90;;;;;;5091340;28;19916;-60
2021/12/22 09:13:27;;;;;;;;;;;-0.60;99.90;;;;;;5091641;28;19919;-61
2021/12/22 09:15:53;;;;;;;;;;;-0.60;99.90;;;;;;5090972;28;19915;-61
2021/12/22 09:18:18;;;;;;;;;;;-0.50;99.90;;;;;;5095703;28;19920;-60
2021/12/22 09:20:46;;;;;;;;;;;-0.50;99.90;;;;;;5096056;28;19975;-62
2021/12/22 09:23:12;;;;;;;;;;;-0.50;99.90;;;;;;5091481;28;19995;-61
2021/12/22 09:25:37;;;;;;;;;;;-0.30;99.90;;;;;;5091479;28;20073;-61
2021/12/22 09:28:03;;;;;;;;;;;-0.30;99.90;;;;;;5090301;28;20240;-59
2021/12/22 09:30:35;;;;;;;;;;;-0.20;99.90;;;;;;5086648;28;20360;-60
2021/12/22 09:33:02;;;;;;;;;;;-0.20;99.90;;;;;;5090173;28;20008;-61
2021/12/22 09:35:27;;;;;;;;;;;-0.20;99.90;;;;;;5096839;28;20355;-60
2021/12/22 09:37:53;;;;;;;;;;;-0.10;99.90;;;;;;5089692;28;20012;-62
2021/12/22 09:40:18;;;;;;;;;;;-0.10;99.90;;;;;;5089821;28;20279;-61
2021/12/22 09:42:44;;;;;;;;;;;-0.10;99.90;;;;;;5090765;28;19912;-61
2021/12/22 09:45:09;;;;;;;;;;;-0.10;99.90;;;;;;5090287;28;20553;-60
2021/12/22 09:47:50;;;;;;;;;;;-0.10;99.90;;;;;;5088183;28;20411;-61
2021/12/22 09:50:24;;;;;;;;;;;0.10;99.90;;;;;;5090010;28;20288;-61
2021/12/22 09:52:50;;;;;;;;;;;0.20;99.90;;;;;;5085253;28;19915;-61
2021/12/22 09:55:16;;;;;;;;;;;0.20;99.90;;;;;;5070402;28;20392;-61
2021/12/22 09:57:41;;;;;;;;;;;0.10;99.90;;;;;;5077597;28;19908;-61
2021/12/22 10:00:08;;;;;;;;;;;0.10;99.90;;;;;;5090893;28;19915;-61
2021/12/22 10:02:33;;;;;;;;;;;0.20;99.90;;;;;;5089382;28;19995;-62
2021/12/22 10:05:00;;;;;;;;;;;0.30;99.90;;;;;;5074769;28;20024;-59
2021/12/22 10:07:28;;;;;;;;;;;0.30;99.90;;;;;;5109549;28;20287;-61
2021/12/22 10:10:02;;;;;;;;;;;0.40;99.90;;;;;;5113538;28;19957;-61
2021/12/22 10:12:28;;;;;;;;;;;0.40;99.90;;;;;;5114921;28;20460;-61
2021/12/22 10:15:00;;;;;;;;;;;0.40;99.90;;;;;;5111691;28;19912;-61
2021/12/22 10:17:27;;;;;;;;;;;0.50;99.90;;;;;;5090041;28;20216;-61
2021/12/22 10:19:54;;;;;;;;;;;0.50;99.90;;;;;;5090731;28;19908;-61
2021/12/22 10:22:20;;;;;;;;;;;0.60;99.90;;;;;;5092285;28;19926;-60
2021/12/22 10:24:46;;;;;;;;;;;0.60;99.90;;;;;;5090053;28;19990;-61
2021/12/22 10:27:18;;;;;;;;;;;0.70;99.90;;;;;;5090380;28;19912;-61
2021/12/22 10:29:44;;;;;;;;;;;0.70;99.90;;;;;;5089649;28;19908;-62
2021/12/22 10:32:11;;;;;;;;;;;0.80;99.90;;;;;;5089692;28;19918;-62
2021/12/22 10:34:54;;;;;;;;;;;0.80;99.90;;;;;;5089294;28;20544;-61
2021/12/22 10:37:33;;;;;;;;;;;0.80;99.90;;;;;;5090206;28;19957;-62
2021/12/22 10:39:58;;;;;;;;;;;0.70;99.90;;;;;;5080763;28;19909;-61
2021/12/22 10:42:38;;;;;;;;;;;0.90;99.90;;;;;;5069202;28;19994;-62
2021/12/22 10:45:09;;;;;;;;;;;0.90;99.90;;;;;;5069833;28;19909;-60
2021/12/22 10:49:14;;;;;;;;;;;1.00;99.90;;;;;;5069557;28;19927;-61
2021/12/22 10:50:30;;;;;;;;;;;1.10;99.90;;;;;;5079256;28;19950;-61
2021/12/22 10:52:57;;;;;;;;;;;1.20;99.90;;;;;;5089459;28;20063;-62
2021/12/22 10:55:22;;;;;;;;;;;1.10;99.90;;;;;;5088810;28;19912;-61
2021/12/22 10:57:48;;;;;;;;;;;1.20;99.90;;;;;;5091060;28;20391;-64
2021/12/22 11:00:26;;;;;;;;;;;1.30;99.90;;;;;;5090387;28;19912;-61
2021/12/22 11:03:01;;;;;;;;;;;1.30;99.90;;;;;;5090198;28;20003;-61
2021/12/22 11:05:29;;;;;;;;;;;1.10;99.90;;;;;;5089157;28;20670;-60
2021/12/22 11:07:55;;;;;;;;;;;1.10;99.90;;;;;;5088992;28;19920;-63
2021/12/22 11:10:28;;;;;;;;;;;1.20;99.90;;;;;;5087270;23;19932;-69
2021/12/22 11:13:00;;;;;;;;;;;1.30;99.90;;;;;;5034216;28;19916;-69
2021/12/22 11:15:26;;;;;;;;;;;1.40;99.90;;;;;;5032176;28;19917;-67
2021/12/22 11:17:51;;;;;;;;;;;1.40;99.90;;;;;;5049079;28;19909;-67
2021/12/22 11:20:21;;;;;;;;;;;1.40;99.90;;;;;;5048860;28;19909;-68
2021/12/22 11:23:10;;;;;;;;;;;1.50;99.90;;;;;;5049877;28;20301;-69
2021/12/22 11:25:33;;;;;;;;;;;1.60;99.90;;;;;;5049162;28;20287;-69
2021/12/22 11:27:59;;;;;;;;;;;1.60;99.90;;;;;;5046387;28;20040;-68
2021/12/22 11:30:28;;;;;;;;;;;1.70;99.90;;;;;;5031362;28;20294;-68
2021/12/22 11:32:57;;;;;;;;;;;1.70;99.90;;;;;;5031135;28;19920;-67
2021/12/22 11:35:23;;;;;;;;;;;1.90;99.90;;;;;;5031179;28;20159;-68
2021/12/22 11:37:49;;;;;;;;;;;2.20;99.90;;;;;;5031695;28;19909;-67
2021/12/22 11:40:17;;;;;;;;;;;2.40;99.90;;;;;;5031986;28;20024;-68
2021/12/22 11:42:42;;;;;;;;;;;2.50;99.90;;;;;;5032182;28;20003;-69
2021/12/22 11:45:08;;;;;;;;;;;2.60;99.90;;;;;;5032598;28;20454;-68
2021/12/22 11:47:37;;;;;;;;;;;2.70;99.90;;;;;;5030365;28;19920;-67
2021/12/22 11:50:04;;;;;;;;;;;2.70;99.90;;;;;;5029636;28;20011;-68
2021/12/22 11:52:31;;;;;;;;;;;2.90;99.90;;;;;;5029361;28;19913;-68
2021/12/22 11:55:12;;;;;;;;;;;3.00;99.90;;;;;;5029378;28;20006;-68
2021/12/22 11:57:38;;;;;;;;;;;3.00;99.90;;;;;;5029583;28;19920;-68
2021/12/22 12:00:19;;;;;;;;;;;2.90;99.90;;;;;;5028531;28;20267;-69
2021/12/22 12:02:44;;;;;;;;;;;2.70;99.90;;;;;;5045182;28;19915;-69
2021/12/22 12:05:18;;;;;;;;;;;2.60;99.90;;;;;;5045040;28;20112;-68
2021/12/22 12:07:48;;;;;;;;;;;2.60;99.90;;;;;;5040820;28;20161;-68
2021/12/22 12:10:50;;;;;;;;;;;2.60;99.90;;;;;;5030832;28;19925;-68
2021/12/22 12:13:24;;;;;;;;;;;2.50;99.90;;;;;;4983891;28;19913;-67
2021/12/22 12:21:38;;;;;;;;;;;2.70;99.90;;;;;;5022159;28;19924;-68
2021/12/22 12:21:59;;;;;;;;;;;3.10;99.90;;;;;;5028022;28;19920;-67
2021/12/22 12:24:30;;;;;;;;;;;3.30;99.90;;;;;;5027853;28;20412;-67
2021/12/22 12:26:56;;;;;;;;;;;3.20;99.90;;;;;;5027295;28;20008;-67
2021/12/22 12:29:40;;;;;;;;;;;3.10;99.90;;;;;;5028902;28;19913;-67
2021/12/22 12:32:06;;;;;;;;;;;3.00;99.90;;;;;;5015682;28;19913;-67
2021/12/22 12:34:31;;;;;;;;;;;3.20;99.90;;;;;;5040366;28;19915;-68
2021/12/22 12:36:57;;;;;;;;;;;3.50;99.90;;;;;;5047887;28;20286;-69
2021/12/22 12:39:41;;;;;;;;;;;3.50;99.90;;;;;;5029388;28;19913;-68
2021/12/22 12:42:06;;;;;;;;;;;3.50;99.90;;;;;;5027764;28;20307;-67
2021/12/22 12:44:32;;;;;;;;;;;3.30;99.90;;;;;;5028535;28;19909;-67
2021/12/22 12:46:57;;;;;;;;;;;2.90;99.90;;;;;;5029910;28;20405;-68
2021/12/22 12:49:23;;;;;;;;;;;2.80;99.90;;;;;;5027453;28;19913;-68
2021/12/22 12:51:52;;;;;;;;;;;2.80;99.90;;;;;;5028167;28;20414;-69
2021/12/22 12:54:17;;;;;;;;;;;3.00;99.90;;;;;;5027755;28;19955;-66
2021/12/22 12:56:44;;;;;;;;;;;2.80;99.90;;;;;;5027733;28;20328;-67
2021/12/22 12:59:11;;;;;;;;;;;3.00;99.90;;;;;;5027691;28;19913;-68
2021/12/22 13:01:46;;;;;;;;;;;3.40;99.90;;;;;;5027950;28;19909;-68
2021/12/22 13:04:23;;;;;;;;;;;3.60;99.90;;;;;;5026563;28;19920;-68
2021/12/22 13:07:01;;;;;;;;;;;3.60;99.90;;;;;;5027320;28;19913;-68
2021/12/22 13:09:30;;;;;;;;;;;3.60;99.90;;;;;;5027228;28;19917;-68
2021/12/22 13:11:59;;;;;;;;;;;3.60;99.90;;;;;;5027672;28;19913;-68
2021/12/22 13:17:10;;;;;;;;;;;3.30;99.90;;;;;;5027838;28;20031;-68
2021/12/22 13:19:39;;;;;;;;;;;3.30;99.90;;;;;;5026283;28;20003;-67
2021/12/22 13:22:20;;;;;;;;;;;3.30;99.90;;;;;;5027712;28;19972;-67
2021/12/22 13:24:46;;;;;;;;;;;3.20;99.90;;;;;;5027672;28;19916;-68
2021/12/22 13:27:11;;;;;;;;;;;3.30;99.90;;;;;;5028425;28;20316;-66
2021/12/22 13:29:39;;;;;;;;;;;3.20;99.90;;;;;;5028607;28;19909;-67
2021/12/22 13:32:13;;;;;;;;;;;3.20;99.90;;;;;;5029501;28;19909;-68
2021/12/22 13:34:42;;;;;;;;;;;3.30;99.90;;;;;;5027615;28;19931;-66
2021/12/22 13:37:08;;;;;;;;;;;3.30;99.90;;;;;;5026728;28;19959;-67
2021/12/22 13:39:45;;;;;;;;;;;3.20;99.90;;;;;;5027617;28;19953;-69
2021/12/22 13:42:11;;;;;;;;;;;3.10;99.90;;;;;;5027751;28;19917;-69
2021/12/22 13:44:37;;;;;;;;;;;2.90;99.90;;;;;;5045787;28;19920;-69
2021/12/22 13:47:03;;;;;;;;;;;2.70;99.90;;;;;;5041166;28;19924;-66
2021/12/22 13:49:29;;;;;;;;;;;2.60;99.90;;;;;;5031896;28;19909;-68
2021/12/22 13:51:55;;;;;;;;;;;2.50;99.90;;;;;;5034979;28;19913;-67
2021/12/22 13:54:24;;;;;;;;;;;2.30;99.90;;;;;;5050557;28;20322;-67
2021/12/22 13:56:50;;;;;;;;;;;2.20;99.90;;;;;;5039176;28;19915;-67
2021/12/22 13:59:23;;;;;;;;;;;2.10;99.90;;;;;;5030618;28;19909;-68
2021/12/22 14:01:50;;;;;;;;;;;2.00;99.90;;;;;;5031112;28;19915;-67
2021/12/22 14:04:39;;;;;;;;;;;2.00;99.90;;;;;;5030918;28;19916;-67
2021/12/22 14:07:04;;;;;;;;;;;2.00;99.90;;;;;;5032231;28;20361;-67
2021/12/22 14:09:30;;;;;;;;;;;2.00;99.90;;;;;;5032163;28;19921;-68
2021/12/22 14:11:57;;;;;;;;;;;2.00;99.90;;;;;;5030915;28;19913;-69
2021/12/22 14:14:33;;;;;;;;;;;1.90;99.90;;;;;;5031154;28;20012;-68
2021/12/22 14:17:08;;;;;;;;;;;1.90;99.90;;;;;;5031117;28;19914;-67
2021/12/22 14:19:35;;;;;;;;;;;1.90;99.90;;;;;;5030877;28;19916;-67
2021/12/22 14:22:04;;;;;;;;;;;1.90;99.90;;;;;;5030895;28;20004;-68
2021/12/22 14:24:41;;;;;;;;;;;1.80;99.90;;;;;;5030408;28;20059;-68
2021/12/22 14:27:09;;;;;;;;;;;1.70;99.90;;;;;;5030504;28;19917;-68
2021/12/22 14:29:45;;;;;;;;;;;1.60;99.90;;;;;;5030298;28;19917;-67
2021/12/22 14:32:10;;;;;;;;;;;1.50;99.90;;;;;;5029811;28;19913;-67
2021/12/22 14:34:55;;;;;;;;;;;1.60;99.90;;;;;;5029466;28;20541;-67
2021/12/22 14:37:25;;;;;;;;;;;1.50;99.90;;;;;;5037904;28;20313;-68
2021/12/22 14:39:54;;;;;;;;;;;1.50;99.90;;;;;;5030362;28;19917;-68
2021/12/22 14:42:25;;;;;;;;;;;1.50;99.90;;;;;;5040800;28;19913;-70
2021/12/22 14:44:52;;;;;;;;;;;1.50;99.90;;;;;;5015900;28;20207;-67
2021/12/22 14:47:21;;;;;;;;;;;1.50;99.90;;;;;;5009122;28;20356;-68
2021/12/22 14:49:48;;;;;;;;;;;1.50;99.90;;;;;;5014086;28;20011;-68